createdAt,value
2017-07-03T00:00:23.639Z,89.45
2017-07-03T00:01:04.143Z,89.16
2017-07-03T00:01:44.611Z,89.07
2017-07-03T00:02:25.146Z,88.97
2017-07-03T00:03:05.635Z,89.07
2017-07-03T00:03:46.171Z,88.97
2017-07-03T00:04:26.630Z,89.07
2017-07-03T00:05:07.144Z,89.64
2017-07-03T00:05:47.882Z,89.16
2017-07-03T00:06:28.350Z,89.54
2017-07-03T00:07:08.852Z,89.45
2017-07-03T00:07:49.337Z,89.45
2017-07-03T00:08:29.862Z,89.36
2017-07-03T00:09:10.411Z,89.36
2017-07-03T00:09:50.863Z,89.07
2017-07-03T00:10:31.386Z,89.45
2017-07-03T00:11:11.878Z,89.16
2017-07-03T00:11:52.371Z,89.36
2017-07-03T00:12:32.871Z,89.07
2017-07-03T00:13:13.468Z,89.26
2017-07-03T00:13:53.921Z,89.07
2017-07-03T00:14:34.428Z,88.78
2017-07-03T00:15:14.942Z,88.39
2017-07-03T00:15:55.433Z,88.87
2017-07-03T00:16:35.957Z,89.07
2017-07-03T00:17:16.441Z,89.26
2017-07-03T00:17:56.936Z,89.07
2017-07-03T00:18:37.400Z,89.26
2017-07-03T00:19:17.927Z,89.07
2017-07-03T00:19:58.404Z,89.36
2017-07-03T00:20:38.878Z,89.36
2017-07-03T00:21:19.440Z,89.26
2017-07-03T00:21:59.929Z,88.87
2017-07-03T00:22:40.402Z,89.45
2017-07-03T00:23:20.893Z,88.87
2017-07-03T00:24:01.427Z,89.07
2017-07-03T00:24:41.927Z,88.87
2017-07-03T00:25:22.461Z,88.49
2017-07-03T00:26:02.941Z,88.3
2017-07-03T00:26:43.459Z,88.44
2017-07-03T00:27:24.048Z,88.39
2017-07-03T00:28:04.516Z,88.87
2017-07-03T00:28:45.029Z,88.49
2017-07-03T00:29:25.640Z,88.44
2017-07-03T00:30:06.166Z,88.92
2017-07-03T00:30:46.621Z,88.97
2017-07-03T00:31:27.164Z,89.11
2017-07-03T00:32:07.626Z,88.53
2017-07-03T00:32:48.113Z,88.59
2017-07-03T00:33:28.603Z,88.49
2017-07-03T00:34:09.145Z,88.59
2017-07-03T00:34:49.593Z,89.07
2017-07-03T00:35:30.082Z,88.59
2017-07-03T00:36:10.591Z,88.39
2017-07-03T00:36:51.155Z,88.49
2017-07-03T00:37:31.593Z,88.78
2017-07-03T00:38:12.118Z,88.97
2017-07-03T00:38:52.588Z,88.97
2017-07-03T00:39:33.094Z,88.78
2017-07-03T00:40:13.612Z,89.36
2017-07-03T00:40:54.214Z,89.16
2017-07-03T00:41:34.687Z,89.54
2017-07-03T00:42:15.175Z,89.45
2017-07-03T00:42:55.700Z,89.54
2017-07-03T00:43:36.224Z,89.45
2017-07-03T00:44:16.624Z,89.16
2017-07-03T00:44:57.116Z,89.26
2017-07-03T00:45:37.603Z,89.45
2017-07-03T00:46:18.055Z,89.54
2017-07-03T00:46:58.623Z,89.36
2017-07-03T00:47:39.211Z,88.97
2017-07-03T00:48:19.687Z,89.26
2017-07-03T00:49:00.192Z,89.26
2017-07-03T00:49:41.515Z,89.64
2017-07-03T00:50:21.985Z,89.45
2017-07-03T00:51:02.510Z,89.83
2017-07-03T00:51:42.992Z,89.93
2017-07-03T00:52:23.478Z,89.79
2017-07-03T00:53:03.996Z,89.98
2017-07-03T00:53:44.504Z,89.54
2017-07-03T00:54:25.013Z,89.64
2017-07-03T00:55:05.623Z,89.83
2017-07-03T00:55:46.121Z,90.03
2017-07-03T00:56:26.598Z,89.83
2017-07-03T00:57:07.090Z,89.54
2017-07-03T00:57:47.611Z,90.12
2017-07-03T00:58:28.165Z,89.93
2017-07-03T00:59:08.612Z,90.12
2017-07-03T00:59:49.096Z,90.03
2017-07-03T01:00:29.614Z,89.83
2017-07-03T01:01:10.121Z,89.26
2017-07-03T01:01:50.601Z,89.64
2017-07-03T01:02:31.144Z,89.64
2017-07-03T01:03:11.656Z,89.45
2017-07-03T01:03:52.141Z,89.45
2017-07-03T01:04:32.582Z,89.83
2017-07-03T01:05:13.069Z,89.74
2017-07-03T01:05:53.576Z,89.54
2017-07-03T01:06:34.103Z,90.03
2017-07-03T01:07:14.580Z,89.93
2017-07-03T01:07:55.076Z,90.03
2017-07-03T01:08:35.535Z,89.64
2017-07-03T01:09:16.072Z,89.54
2017-07-03T01:09:56.570Z,89.36
2017-07-03T01:10:37.097Z,89.54
2017-07-03T01:11:17.560Z,89.83
2017-07-03T01:11:58.071Z,89.64
2017-07-03T01:12:38.630Z,89.07
2017-07-03T01:13:19.060Z,89.45
2017-07-03T01:13:59.573Z,89.26
2017-07-03T01:14:40.077Z,89.45
2017-07-03T01:15:20.621Z,89.54
2017-07-03T01:16:01.052Z,90.03
2017-07-03T01:16:41.556Z,90.03
2017-07-03T01:17:22.103Z,89.74
2017-07-03T01:18:02.588Z,89.83
2017-07-03T01:18:43.083Z,89.93
2017-07-03T01:19:23.579Z,89.36
2017-07-03T01:20:04.066Z,89.26
2017-07-03T01:20:44.540Z,89.93
2017-07-03T01:21:25.063Z,89.74
2017-07-03T01:22:05.564Z,90.12
2017-07-03T01:22:46.044Z,90.12
2017-07-03T01:23:26.581Z,90.03
2017-07-03T01:24:07.045Z,90.12
2017-07-03T01:24:47.577Z,89.83
2017-07-03T01:25:28.070Z,90.03
2017-07-03T01:26:08.594Z,89.26
2017-07-03T01:26:49.083Z,89.64
2017-07-03T01:27:29.553Z,89.36
2017-07-03T01:28:10.087Z,89.45
2017-07-03T01:28:50.524Z,89.36
2017-07-03T01:29:31.038Z,89.74
2017-07-03T01:30:11.515Z,90.41
2017-07-03T01:30:52.028Z,90.03
2017-07-03T01:31:32.498Z,90.22
2017-07-03T01:32:13.008Z,90.31
2017-07-03T01:32:53.463Z,90.6
2017-07-03T01:33:34.106Z,89.93
2017-07-03T01:34:14.673Z,90.22
2017-07-03T01:34:55.284Z,90.41
2017-07-03T01:35:35.659Z,89.93
2017-07-03T01:36:16.136Z,89.64
2017-07-03T01:36:56.628Z,89.26
2017-07-03T01:37:37.108Z,89.54
2017-07-03T01:38:17.646Z,89.36
2017-07-03T01:38:58.233Z,89.74
2017-07-03T01:39:38.744Z,89.54
2017-07-03T01:40:19.195Z,89.36
2017-07-03T01:40:59.736Z,89.07
2017-07-03T01:41:40.238Z,88.97
2017-07-03T01:42:20.696Z,89.16
2017-07-03T01:43:01.167Z,88.82
2017-07-03T01:43:41.703Z,88.78
2017-07-03T01:44:22.179Z,89.26
2017-07-03T01:45:02.709Z,88.97
2017-07-03T01:45:43.194Z,89.45
2017-07-03T01:46:23.704Z,89.16
2017-07-03T01:47:04.259Z,88.92
2017-07-03T01:47:44.737Z,88.63
2017-07-03T01:48:25.154Z,88.92
2017-07-03T01:49:05.692Z,89.21
2017-07-03T01:49:46.146Z,88.49
2017-07-03T01:50:26.681Z,88.63
2017-07-03T01:51:07.127Z,88.53
2017-07-03T01:51:47.672Z,89.07
2017-07-03T01:52:28.172Z,88.97
2017-07-03T01:53:08.637Z,89.11
2017-07-03T01:53:49.201Z,89.07
2017-07-03T01:54:29.682Z,89.36
2017-07-03T01:55:10.176Z,89.26
2017-07-03T01:55:50.680Z,89.36
2017-07-03T01:56:31.192Z,89.36
2017-07-03T01:57:11.677Z,89.45
2017-07-03T01:57:52.203Z,89.26
2017-07-03T01:58:32.688Z,89.64
2017-07-03T01:59:13.158Z,89.54
2017-07-03T01:59:53.689Z,89.26
2017-07-03T02:00:34.284Z,89.26
2017-07-03T02:01:14.798Z,89.3
2017-07-03T02:01:55.294Z,88.78
2017-07-03T02:02:35.925Z,88.78
2017-07-03T02:04:33.702Z,89.16
2017-07-03T02:05:14.224Z,88.82
2017-07-03T02:05:54.730Z,88.97
2017-07-03T02:06:35.247Z,88.73
2017-07-03T02:07:15.834Z,88.68
2017-07-03T02:07:56.352Z,88.59
2017-07-03T02:08:36.856Z,89.07
2017-07-03T02:09:17.397Z,88.92
2017-07-03T02:09:57.908Z,88.59
2017-07-03T02:10:38.441Z,89.16
2017-07-03T02:11:18.888Z,89.5
2017-07-03T02:11:59.402Z,89.07
2017-07-03T02:12:39.940Z,89.16
2017-07-03T02:13:20.408Z,89.26
2017-07-03T02:14:00.880Z,89.54
2017-07-03T02:14:41.407Z,89.64
2017-07-03T02:15:21.923Z,89.26
2017-07-03T02:16:02.355Z,89.36
2017-07-03T02:16:42.844Z,89.26
2017-07-03T02:17:23.363Z,89.36
2017-07-03T02:18:03.870Z,89.36
2017-07-03T02:18:44.376Z,89.26
2017-07-03T02:19:24.852Z,89.64
2017-07-03T02:20:05.331Z,89.54
2017-07-03T02:20:45.803Z,89.93
2017-07-03T02:21:26.256Z,89.74
2017-07-03T02:22:06.753Z,90.31
2017-07-03T02:22:47.226Z,90.6
2017-07-03T02:23:27.750Z,90.37
2017-07-03T02:24:08.259Z,90.66
2017-07-03T02:24:48.765Z,90.75
2017-07-03T02:25:29.259Z,90.51
2017-07-03T02:26:09.757Z,90.41
2017-07-03T02:26:50.293Z,90.31
2017-07-03T02:27:30.743Z,90.22
2017-07-03T02:28:11.284Z,90.22
2017-07-03T02:28:51.731Z,90.31
2017-07-03T02:29:32.229Z,89.93
2017-07-03T02:30:12.738Z,90.22
2017-07-03T02:30:53.216Z,90.22
2017-07-03T02:31:33.742Z,90.31
2017-07-03T02:32:14.304Z,90.31
2017-07-03T02:32:54.855Z,90.22
2017-07-03T02:33:35.567Z,90.7
2017-07-03T02:34:15.988Z,90.51
2017-07-03T02:34:56.539Z,90.41
2017-07-03T02:35:37.040Z,90.7
2017-07-03T02:36:17.547Z,90.6
2017-07-03T02:36:58.035Z,90.84
2017-07-03T02:37:38.559Z,91.13
2017-07-03T02:38:18.989Z,90.94
2017-07-03T02:38:59.505Z,90.75
2017-07-03T02:39:40.003Z,90.8
2017-07-03T02:40:20.524Z,90.6
2017-07-03T02:41:00.993Z,90.6
2017-07-03T02:41:41.514Z,90.31
2017-07-03T02:42:22.030Z,90.03
2017-07-03T02:43:02.551Z,90.31
2017-07-03T02:43:43.031Z,90.31
2017-07-03T02:44:23.516Z,90.41
2017-07-03T02:45:04.033Z,90.51
2017-07-03T02:45:44.524Z,90.99
2017-07-03T02:46:25.108Z,90.8
2017-07-03T02:47:05.598Z,90.41
2017-07-03T02:47:46.120Z,90.51
2017-07-03T02:48:26.613Z,90.7
2017-07-03T02:49:07.051Z,90.8
2017-07-03T02:49:47.582Z,90.99
2017-07-03T02:50:28.090Z,90.75
2017-07-03T02:51:08.579Z,91.23
2017-07-03T02:51:49.079Z,91.08
2017-07-03T02:52:29.685Z,90.94
2017-07-03T02:53:10.253Z,90.51
2017-07-03T02:53:50.703Z,90.89
2017-07-03T02:54:31.203Z,90.8
2017-07-03T02:55:11.689Z,90.94
2017-07-03T02:55:52.203Z,90.89
2017-07-03T02:56:32.687Z,90.8
2017-07-03T02:57:13.229Z,90.99
2017-07-03T02:57:53.685Z,90.41
2017-07-03T02:58:34.186Z,90.41
2017-07-03T02:59:14.660Z,90.22
2017-07-03T02:59:55.143Z,90.31
2017-07-03T03:00:35.643Z,90.31
2017-07-03T03:01:16.102Z,89.54
2017-07-03T03:01:56.590Z,89.83
2017-07-03T03:02:37.130Z,90.03
2017-07-03T03:03:17.638Z,89.83
2017-07-03T03:03:58.111Z,89.54
2017-07-03T03:04:38.589Z,89.07
2017-07-03T03:05:19.100Z,89.21
2017-07-03T03:05:59.579Z,89.26
2017-07-03T03:06:40.085Z,89.26
2017-07-03T03:07:20.590Z,89.16
2017-07-03T03:08:01.134Z,89.64
2017-07-03T03:08:41.596Z,89.74
2017-07-03T03:09:22.117Z,89.07
2017-07-03T03:10:02.804Z,89.26
2017-07-03T03:10:43.290Z,89.45
2017-07-03T03:11:23.892Z,89.64
2017-07-03T03:12:04.390Z,89.93
2017-07-03T03:12:44.878Z,89.36
2017-07-03T03:13:25.368Z,89.64
2017-07-03T03:14:05.879Z,89.26
2017-07-03T03:14:46.396Z,89.74
2017-07-03T03:15:26.953Z,89.64
2017-07-03T03:16:07.425Z,89.74
2017-07-03T03:16:47.909Z,89.36
2017-07-03T03:17:28.370Z,89.36
2017-07-03T03:18:08.911Z,89.45
2017-07-03T03:18:49.379Z,89.45
2017-07-03T03:19:29.847Z,89.74
2017-07-03T03:20:10.374Z,89.74
2017-07-03T03:20:50.859Z,89.36
2017-07-03T03:21:31.365Z,89.36
2017-07-03T03:22:11.812Z,89.36
2017-07-03T03:22:52.347Z,89.36
2017-07-03T03:23:32.869Z,89.64
2017-07-03T03:24:13.354Z,89.26
2017-07-03T03:24:53.880Z,89.45
2017-07-03T03:25:34.397Z,89.64
2017-07-03T03:26:14.930Z,89.45
2017-07-03T03:26:55.433Z,89.26
2017-07-03T03:27:35.919Z,89.54
2017-07-03T03:28:16.406Z,89.54
2017-07-03T03:28:56.957Z,89.45
2017-07-03T03:29:37.425Z,89.83
2017-07-03T03:30:17.952Z,89.54
2017-07-03T03:30:58.505Z,89.64
2017-07-03T03:31:38.945Z,89.54
2017-07-03T03:32:19.455Z,89.45
2017-07-03T03:32:59.947Z,89.54
2017-07-03T03:33:40.454Z,89.74
2017-07-03T03:34:21.029Z,89.36
2017-07-03T03:35:01.558Z,89.64
2017-07-03T03:35:42.094Z,89.26
2017-07-03T03:36:22.654Z,89.45
2017-07-03T03:37:03.136Z,88.59
2017-07-03T03:37:43.633Z,89.3
2017-07-03T03:38:24.098Z,89.07
2017-07-03T03:39:04.634Z,89.54
2017-07-03T03:39:45.111Z,89.16
2017-07-03T03:40:25.611Z,89.26
2017-07-03T03:41:06.052Z,89.16
2017-07-03T03:41:46.564Z,89.54
2017-07-03T03:42:27.116Z,89.93
2017-07-03T03:43:07.593Z,90.03
2017-07-03T03:43:48.048Z,90.03
2017-07-03T03:44:28.551Z,89.93
2017-07-03T03:45:09.238Z,89.64
2017-07-03T03:45:49.805Z,89.83
2017-07-03T03:46:30.259Z,89.83
2017-07-03T03:47:10.791Z,90.12
2017-07-03T03:47:51.323Z,90.12
2017-07-03T03:48:31.751Z,90.31
2017-07-03T03:49:12.247Z,90.31
2017-07-03T03:49:53.315Z,89.93
2017-07-03T03:50:33.848Z,90.41
2017-07-03T03:51:14.351Z,89.83
2017-07-03T03:51:54.842Z,90.12
2017-07-03T03:52:35.311Z,89.83
2017-07-03T03:53:15.810Z,90.22
2017-07-03T03:53:56.324Z,90.51
2017-07-03T03:54:36.812Z,89.93
2017-07-03T03:55:17.304Z,90.22
2017-07-03T03:55:57.819Z,90.22
2017-07-03T03:56:38.307Z,90.31
2017-07-03T03:58:51.659Z,90.6
2017-07-03T03:59:32.185Z,90.31
2017-07-03T04:00:12.808Z,90.12
2017-07-03T04:00:53.338Z,90.41
2017-07-03T04:01:33.833Z,90.03
2017-07-03T04:02:14.335Z,89.83
2017-07-03T04:02:54.891Z,89.74
2017-07-03T04:03:35.386Z,89.64
2017-07-03T04:04:16.023Z,89.64
2017-07-03T04:04:56.536Z,89.64
2017-07-03T04:05:37.031Z,89.45
2017-07-03T04:06:17.501Z,90.03
2017-07-03T04:06:58.037Z,89.26
2017-07-03T04:07:38.545Z,89.74
2017-07-03T04:08:19.047Z,89.07
2017-07-03T04:08:59.663Z,89.4
2017-07-03T04:10:47.679Z,89.21
2017-07-03T04:11:28.212Z,89.45
2017-07-03T04:12:08.720Z,89.64
2017-07-03T04:12:49.235Z,89.45
2017-07-03T04:13:29.771Z,89.54
2017-07-03T04:14:10.221Z,89.45
2017-07-03T04:14:50.728Z,89.45
2017-07-03T04:15:31.260Z,89.07
2017-07-03T04:16:11.780Z,89.4
2017-07-03T04:16:52.308Z,89.36
2017-07-03T04:18:45.969Z,89.11
2017-07-03T04:19:26.487Z,89.26
2017-07-03T04:20:07.024Z,89.11
2017-07-03T04:20:47.658Z,89.36
2017-07-03T04:21:28.175Z,89.16
2017-07-03T04:22:08.645Z,89.16
2017-07-03T04:22:49.147Z,89.16
2017-07-03T04:23:29.611Z,89.5
2017-07-03T04:24:10.046Z,88.92
2017-07-03T04:24:50.640Z,88.97
2017-07-03T04:25:31.156Z,89.16
2017-07-03T04:26:11.706Z,88.34
2017-07-03T04:26:52.224Z,88.63
2017-07-03T04:27:32.705Z,88.53
2017-07-03T04:28:13.182Z,88.92
2017-07-03T04:28:53.645Z,88.63
2017-07-03T04:29:34.132Z,88.92
2017-07-03T04:30:14.649Z,89.01
2017-07-03T04:30:55.156Z,88.15
2017-07-03T04:31:35.634Z,88.44
2017-07-03T04:32:16.174Z,88.92
2017-07-03T04:32:56.653Z,88.92
2017-07-03T04:33:37.127Z,88.82
2017-07-03T04:34:17.636Z,88.34
2017-07-03T04:34:58.089Z,88.34
2017-07-03T04:35:38.634Z,88.53
2017-07-03T04:36:19.130Z,88.73
2017-07-03T04:36:59.558Z,89.01
2017-07-03T04:37:40.100Z,88.73
2017-07-03T04:38:20.532Z,88.73
2017-07-03T04:39:01.295Z,88.53
2017-07-03T04:39:41.962Z,89.01
2017-07-03T04:40:22.445Z,88.92
2017-07-03T04:41:02.956Z,88.06
2017-07-03T04:41:43.545Z,89.11
2017-07-03T04:42:24.054Z,88.92
2017-07-03T04:43:04.749Z,87.86
2017-07-03T04:43:45.330Z,88.24
2017-07-03T04:44:25.868Z,88.24
2017-07-03T04:45:06.345Z,88.44
2017-07-03T04:45:46.848Z,88.24
2017-07-03T04:46:27.361Z,88.15
2017-07-03T04:47:07.906Z,88.06
2017-07-03T04:47:48.549Z,87.67
2017-07-03T04:48:29.018Z,87.96
2017-07-03T04:49:09.574Z,87.19
2017-07-03T04:49:50.070Z,87.38
2017-07-03T04:50:30.562Z,87.38
2017-07-03T04:51:11.094Z,87.48
2017-07-03T04:51:51.604Z,88.15
2017-07-03T04:52:32.091Z,87.57
2017-07-03T04:53:12.613Z,87.67
2017-07-03T04:53:53.119Z,87.29
2017-07-03T04:54:33.644Z,87.29
2017-07-03T04:55:14.140Z,87.29
2017-07-03T04:55:54.607Z,86.8
2017-07-03T04:56:35.114Z,87.29
2017-07-03T04:57:15.716Z,87.19
2017-07-03T04:57:56.191Z,87.19
2017-07-03T04:58:36.725Z,87.13
2017-07-03T04:59:17.202Z,86.85
2017-07-03T04:59:57.733Z,86.71
2017-07-03T05:00:38.215Z,86.46
2017-07-03T05:01:18.736Z,86.94
2017-07-03T05:01:59.210Z,86.8
2017-07-03T05:02:39.669Z,86.61
2017-07-03T05:03:20.259Z,86.9
2017-07-03T05:04:00.775Z,87.19
2017-07-03T05:04:41.270Z,87.09
2017-07-03T05:05:21.791Z,87.19
2017-07-03T05:06:02.305Z,87.76
2017-07-03T05:06:42.854Z,87.48
2017-07-03T05:07:23.385Z,87.86
2017-07-03T05:08:03.868Z,87.29
2017-07-03T05:08:44.401Z,87.29
2017-07-03T05:09:24.849Z,87.29
2017-07-03T05:10:05.373Z,87.38
2017-07-03T05:10:45.863Z,87.19
2017-07-03T05:11:26.334Z,87.29
2017-07-03T05:12:06.883Z,87.09
2017-07-03T05:12:47.329Z,86.32
2017-07-03T05:13:27.836Z,86.52
2017-07-03T05:14:08.341Z,86.71
2017-07-03T05:14:48.864Z,86.52
2017-07-03T05:15:29.388Z,86.61
2017-07-03T05:16:09.854Z,86.9
2017-07-03T05:16:50.319Z,86.8
2017-07-03T05:17:30.809Z,86.52
2017-07-03T05:18:11.332Z,86.61
2017-07-03T05:18:51.866Z,86.52
2017-07-03T05:19:32.366Z,86.71
2017-07-03T05:20:12.852Z,86.27
2017-07-03T05:20:53.396Z,85.88
2017-07-03T05:21:33.911Z,86.56
2017-07-03T05:22:14.368Z,85.98
2017-07-03T05:22:54.851Z,85.69
2017-07-03T05:23:35.336Z,85.21
2017-07-03T05:24:15.876Z,84.54
2017-07-03T05:24:56.413Z,84.29
2017-07-03T05:25:36.938Z,84
2017-07-03T05:26:17.409Z,83.33
2017-07-03T05:26:57.925Z,83.66
2017-07-03T05:27:38.400Z,82.6
2017-07-03T05:28:18.929Z,82.41
2017-07-03T05:28:59.424Z,81.87
2017-07-03T05:29:39.928Z,81.29
2017-07-03T05:30:20.390Z,81.01
2017-07-03T05:31:00.855Z,82.26
2017-07-03T05:31:41.379Z,85.05
2017-07-03T05:32:21.934Z,87.07
2017-07-03T05:33:02.385Z,87.74
2017-07-03T05:33:43.035Z,87.46
2017-07-03T05:34:23.511Z,88.37
2017-07-03T05:35:04.032Z,88.85
2017-07-03T05:35:44.497Z,87.6
2017-07-03T05:36:25.037Z,87.6
2017-07-03T05:37:05.521Z,86.73
2017-07-03T05:37:46.070Z,86.92
2017-07-03T05:38:26.499Z,82.43
2017-07-03T05:39:07.025Z,82.92
2017-07-03T05:39:47.540Z,84.94
2017-07-03T05:40:28.043Z,85.33
2017-07-03T05:41:08.526Z,84.84
2017-07-03T05:41:49.033Z,84.65
2017-07-03T05:42:29.600Z,85.03
2017-07-03T05:43:10.049Z,83.73
2017-07-03T05:43:50.549Z,82.96
2017-07-03T05:44:31.012Z,82.67
2017-07-03T05:45:11.589Z,85.08
2017-07-03T05:45:52.268Z,87.49
2017-07-03T05:46:32.719Z,84.5
2017-07-03T05:47:13.235Z,79.87
2017-07-03T05:47:53.686Z,81.76
2017-07-03T05:48:34.179Z,87.83
2017-07-03T05:49:14.709Z,88.12
2017-07-03T05:49:55.236Z,86.73
2017-07-03T05:50:35.767Z,87.35
2017-07-03T05:51:16.222Z,88.85
2017-07-03T05:51:56.748Z,86.73
2017-07-03T05:52:37.486Z,81.81
2017-07-03T05:53:18.035Z,82.29
2017-07-03T05:53:58.533Z,85.19
2017-07-03T05:54:39.112Z,85.28
2017-07-03T05:55:19.565Z,84.09
2017-07-03T05:56:00.131Z,85.72
2017-07-03T05:56:40.623Z,86.11
2017-07-03T05:57:21.127Z,84.95
2017-07-03T05:58:01.727Z,85.05
2017-07-03T05:58:42.236Z,86.88
2017-07-03T05:59:22.695Z,84.66
2017-07-03T06:00:03.226Z,83.7
2017-07-03T06:00:43.745Z,83.12
2017-07-03T06:01:24.360Z,83.31
2017-07-03T06:02:04.849Z,81.77
2017-07-03T06:02:45.394Z,83.7
2017-07-03T06:03:25.925Z,83.7
2017-07-03T06:04:06.423Z,83.61
2017-07-03T06:04:46.936Z,83.84
2017-07-03T06:05:27.398Z,83.74
2017-07-03T06:06:08.230Z,84.8
2017-07-03T06:06:48.668Z,84.47
2017-07-03T06:07:29.172Z,84.28
2017-07-03T06:08:09.676Z,86.98
2017-07-03T06:08:50.265Z,85.24
2017-07-03T06:09:30.769Z,82.74
2017-07-03T06:10:11.274Z,82.83
2017-07-03T06:10:52.095Z,85.38
2017-07-03T06:11:32.585Z,87.02
2017-07-03T06:12:13.242Z,86.21
2017-07-03T06:12:54.336Z,86.25
2017-07-03T06:13:34.808Z,86.25
2017-07-03T06:14:15.380Z,85.38
2017-07-03T06:14:55.879Z,85.28
2017-07-03T06:15:36.389Z,84.22
2017-07-03T06:16:16.899Z,84.8
2017-07-03T06:16:57.442Z,83.94
2017-07-03T06:17:37.973Z,84.12
2017-07-03T06:18:18.623Z,84.8
2017-07-03T06:18:59.178Z,83.64
2017-07-03T06:19:39.788Z,86.77
2017-07-03T06:20:20.655Z,89.28
2017-07-03T06:21:01.205Z,88.02
2017-07-03T06:21:41.715Z,90.15
2017-07-03T06:22:22.187Z,89.86
2017-07-03T06:23:02.776Z,92.75
2017-07-03T06:23:43.360Z,85.81
2017-07-03T06:24:23.883Z,89.76
2017-07-03T06:25:04.307Z,93.13
2017-07-03T06:25:44.830Z,89.86
2017-07-03T06:26:25.956Z,92.27
2017-07-03T06:27:06.527Z,84.75
2017-07-03T06:27:47.051Z,83.98
2017-07-03T06:28:28.396Z,87.54
2017-07-03T06:29:08.899Z,89.47
2017-07-03T06:29:49.461Z,88.41
2017-07-03T06:30:29.960Z,91.98
2017-07-03T06:31:10.437Z,93.18
2017-07-03T06:31:50.933Z,93.85
2017-07-03T06:32:31.408Z,91.83
2017-07-03T06:33:11.909Z,95.01
2017-07-03T06:33:52.681Z,96.27
2017-07-03T06:34:33.242Z,94.92
2017-07-03T06:35:13.723Z,89.32
2017-07-03T06:35:54.216Z,92.8
2017-07-03T06:36:34.725Z,93.47
2017-07-03T06:37:15.203Z,94.24
2017-07-03T06:37:55.706Z,95.79
2017-07-03T06:38:36.184Z,93.18
2017-07-03T06:39:16.770Z,94.43
2017-07-03T06:39:57.311Z,96.46
2017-07-03T06:40:37.828Z,94.53
2017-07-03T06:41:18.358Z,91.54
2017-07-03T06:41:59.104Z,93.28
2017-07-03T06:44:22.158Z,92.6
2017-07-03T06:45:02.755Z,85.61
2017-07-03T06:45:43.289Z,91.25
2017-07-03T06:46:23.955Z,91.83
2017-07-03T06:47:04.677Z,90.44
2017-07-03T06:47:45.262Z,89.47
2017-07-03T06:48:25.805Z,85.61
2017-07-03T06:49:06.365Z,85.23
2017-07-03T06:49:46.870Z,84.65
2017-07-03T06:50:27.429Z,83.01
2017-07-03T06:51:07.926Z,84.84
2017-07-03T06:51:48.464Z,84.36
2017-07-03T06:52:29.339Z,81.47
2017-07-03T06:53:09.806Z,82.82
2017-07-03T06:53:50.305Z,83.88
2017-07-03T06:54:30.844Z,83.5
2017-07-03T06:55:11.337Z,83.88
2017-07-03T06:55:51.827Z,85.91
2017-07-03T06:56:32.328Z,84.84
2017-07-03T06:57:13.150Z,81.27
2017-07-03T06:57:53.659Z,84.07
2017-07-03T06:58:34.160Z,83.88
2017-07-03T06:59:14.625Z,85.13
2017-07-03T06:59:55.135Z,83.59
2017-07-03T07:00:35.756Z,82.82
2017-07-03T07:01:16.284Z,83.78
2017-07-03T07:01:56.799Z,83.5
2017-07-03T07:02:37.432Z,83.78
2017-07-03T07:03:17.955Z,85.52
2017-07-03T07:03:58.454Z,87.16
2017-07-03T07:04:38.983Z,87.64
2017-07-03T07:05:19.516Z,90.63
2017-07-03T07:06:00.040Z,87.93
2017-07-03T07:06:40.562Z,89.86
2017-07-03T07:07:21.314Z,88.26
2017-07-03T07:08:02.164Z,89.32
2017-07-03T07:08:43.297Z,86.82
2017-07-03T07:09:23.117Z,84.11
2017-07-03T07:10:03.576Z,84.93
2017-07-03T07:10:44.704Z,88.11
2017-07-03T07:11:25.168Z,87.82
2017-07-03T07:12:05.657Z,88.69
2017-07-03T07:12:46.794Z,88.98
2017-07-03T07:13:26.744Z,86.76
2017-07-03T07:14:07.291Z,86.57
2017-07-03T07:14:47.747Z,88.73
2017-07-03T07:15:28.249Z,89.79
2017-07-03T07:16:08.785Z,86.32
2017-07-03T07:16:50.385Z,84.48
2017-07-03T07:17:30.954Z,84.39
2017-07-03T07:18:11.391Z,83.62
2017-07-03T07:18:51.940Z,88.39
2017-07-03T07:19:32.415Z,90.33
2017-07-03T07:20:12.941Z,85.78
2017-07-03T07:20:53.436Z,87.67
2017-07-03T07:21:33.898Z,81.01
2017-07-03T07:22:14.516Z,77.34
2017-07-03T07:22:55.519Z,83.56
2017-07-03T07:23:36.020Z,84.63
2017-07-03T07:24:16.521Z,87.62
2017-07-03T07:24:57.048Z,87.04
2017-07-03T07:25:37.567Z,87.04
2017-07-03T07:26:18.164Z,83.75
2017-07-03T07:26:58.663Z,82.5
2017-07-03T07:27:39.212Z,87.33
2017-07-03T07:28:19.693Z,88.87
2017-07-03T07:29:00.191Z,83.85
2017-07-03T07:29:40.690Z,79.31
2017-07-03T07:30:21.215Z,80.91
2017-07-03T07:31:01.691Z,80.66
2017-07-03T07:31:42.206Z,84.14
2017-07-03T07:32:22.691Z,79.08
2017-07-03T07:33:03.231Z,82.17
2017-07-03T07:33:44.063Z,88.1
2017-07-03T07:35:32.163Z,89.94
2017-07-03T07:36:13.182Z,85.69
2017-07-03T07:36:53.742Z,81.59
2017-07-03T07:37:34.262Z,81.34
2017-07-03T07:38:14.830Z,79.85
2017-07-03T07:38:55.297Z,80.91
2017-07-03T07:39:35.933Z,75.7
2017-07-03T07:40:16.702Z,78.46
2017-07-03T07:40:57.224Z,82.84
2017-07-03T07:41:37.760Z,84.48
2017-07-03T07:42:19.109Z,85.45
2017-07-03T07:43:00.203Z,85.45
2017-07-03T07:43:40.693Z,85.26
2017-07-03T07:44:21.177Z,83.81
2017-07-03T07:45:01.707Z,76.82
2017-07-03T07:45:42.201Z,77.01
2017-07-03T07:46:22.758Z,78.56
2017-07-03T07:47:03.261Z,80.2
2017-07-03T07:47:44.382Z,81.55
2017-07-03T07:48:24.909Z,81.55
2017-07-03T07:49:06.292Z,79.33
2017-07-03T07:49:46.794Z,83
2017-07-03T07:50:27.306Z,84.06
2017-07-03T07:51:07.950Z,83.77
2017-07-03T07:51:48.407Z,82.61
2017-07-03T07:52:28.983Z,80.1
2017-07-03T07:53:09.484Z,82.03
2017-07-03T07:53:52.896Z,85.02
2017-07-03T07:54:33.406Z,83.39
2017-07-03T07:55:13.911Z,85.12
2017-07-03T07:55:54.372Z,84.54
2017-07-03T07:57:42.485Z,86.22
2017-07-03T07:58:24.777Z,85.64
2017-07-03T08:00:20.951Z,84.72
2017-07-03T08:01:01.478Z,87.52
2017-07-03T08:01:42.010Z,81.44
2017-07-03T08:02:22.517Z,76.18
2017-07-03T08:03:02.992Z,76.57
2017-07-03T08:03:43.515Z,83.04
2017-07-03T08:04:24.014Z,81.73
2017-07-03T08:05:04.520Z,79.56
2017-07-03T08:05:45.165Z,79.37
2017-07-03T08:06:25.547Z,78.21
2017-07-03T08:07:06.048Z,76.09
2017-07-03T08:07:46.550Z,77.73
2017-07-03T08:08:27.059Z,81.44
2017-07-03T08:09:07.564Z,79.02
2017-07-03T08:09:48.074Z,81.73
2017-07-03T08:10:28.571Z,81.82
2017-07-03T08:11:09.124Z,80.47
2017-07-03T08:11:49.584Z,78.34
2017-07-03T08:12:30.088Z,80.86
2017-07-03T08:13:10.840Z,82.79
2017-07-03T08:13:51.283Z,82.98
2017-07-03T08:14:31.778Z,84.77
2017-07-03T08:15:12.303Z,82.15
2017-07-03T08:15:52.815Z,78.38
2017-07-03T08:16:33.251Z,73.94
2017-07-03T08:17:13.801Z,76.16
2017-07-03T08:17:54.256Z,83.7
2017-07-03T08:18:34.803Z,81.67
2017-07-03T08:19:15.361Z,80.41
2017-07-03T08:19:55.781Z,77.51
2017-07-03T08:20:36.289Z,73.3
2017-07-03T08:21:16.826Z,82.97
2017-07-03T08:21:57.293Z,76.84
2017-07-03T08:22:37.776Z,79.83
2017-07-03T08:23:18.348Z,80.03
2017-07-03T08:23:58.816Z,81.09
2017-07-03T08:24:39.332Z,84.38
2017-07-03T08:25:19.832Z,86.83
2017-07-03T08:26:00.368Z,85.48
2017-07-03T08:26:40.908Z,84.8
2017-07-03T08:27:21.429Z,83.26
2017-07-03T08:28:02.150Z,76.59
2017-07-03T08:28:42.622Z,82.48
2017-07-03T08:29:23.151Z,79.52
2017-07-03T08:30:03.648Z,82.14
2017-07-03T08:30:44.141Z,79.62
2017-07-03T08:31:24.659Z,84.27
2017-07-03T08:32:05.124Z,84.56
2017-07-03T08:32:45.616Z,84.56
2017-07-03T08:33:26.129Z,79
2017-07-03T08:34:06.631Z,82.39
2017-07-03T08:34:47.128Z,81.95
2017-07-03T08:35:27.609Z,80.01
2017-07-03T08:36:08.142Z,83.01
2017-07-03T08:36:48.619Z,83.3
2017-07-03T08:37:29.140Z,81.46
2017-07-03T08:38:09.629Z,83.4
2017-07-03T08:38:50.132Z,80.98
2017-07-03T08:39:30.642Z,83.59
2017-07-03T08:40:11.153Z,82.14
2017-07-03T08:40:51.664Z,79.72
2017-07-03T08:41:32.165Z,79.29
2017-07-03T08:42:12.680Z,78.71
2017-07-03T08:42:53.182Z,79.52
2017-07-03T08:43:33.681Z,76.29
2017-07-03T08:44:14.173Z,76.59
2017-07-03T08:44:54.633Z,76.68
2017-07-03T08:45:35.268Z,77.75
2017-07-03T08:46:15.874Z,76.59
2017-07-03T08:46:56.458Z,77.84
2017-07-03T08:47:36.936Z,81.32
2017-07-03T08:48:17.469Z,81.52
2017-07-03T08:48:57.938Z,75.71
2017-07-03T08:49:38.407Z,78.61
2017-07-03T08:50:18.928Z,79.58
2017-07-03T08:50:59.409Z,79.58
2017-07-03T08:51:39.922Z,75.71
2017-07-03T08:52:20.444Z,77.75
2017-07-03T08:53:00.944Z,76.01
2017-07-03T08:53:41.438Z,74.75